sensor_id;sensor_type;location;lat;lon;timestamp;P1;durP1;ratioP1;P2;durP2;ratioP2
52674;SDS011;38569;52.722;6.440;2024-02-14T00:02:16;13.52;;;9.70;;
52674;SDS011;38569;52.722;6.440;2024-02-14T00:04:42;13.10;;;9.20;;
52674;SDS011;38569;52.722;6.440;2024-02-14T00:07:08;17.00;;;10.18;;
52674;SDS011;38569;52.722;6.440;2024-02-14T00:09:34;15.80;;;10.73;;
52674;SDS011;38569;52.722;6.440;2024-02-14T00:12:00;18.52;;;10.15;;
52674;SDS011;38569;52.722;6.440;2024-02-14T00:14:26;15.00;;;10.07;;
52674;SDS011;38569;52.722;6.440;2024-02-14T00:16:52;16.70;;;10.75;;
52674;SDS011;38569;52.722;6.440;2024-02-14T00:19:17;14.50;;;10.23;;
52674;SDS011;38569;52.722;6.440;2024-02-14T00:21:43;14.50;;;9.82;;
52674;SDS011;38569;52.722;6.440;2024-02-14T00:24:09;14.45;;;9.48;;
52674;SDS011;38569;52.722;6.440;2024-02-14T00:26:36;13.40;;;9.32;;
52674;SDS011;38569;52.722;6.440;2024-02-14T00:29:04;14.25;;;10.68;;
52674;SDS011;38569;52.722;6.440;2024-02-14T00:31:30;11.75;;;9.48;;
52674;SDS011;38569;52.722;6.440;2024-02-14T00:33:55;11.80;;;9.45;;
52674;SDS011;38569;52.722;6.440;2024-02-14T00:36:21;12.75;;;10.15;;
52674;SDS011;38569;52.722;6.440;2024-02-14T00:38:47;12.27;;;10.60;;
52674;SDS011;38569;52.722;6.440;2024-02-14T00:41:12;15.43;;;10.50;;
52674;SDS011;38569;52.722;6.440;2024-02-14T00:43:38;14.68;;;10.10;;
52674;SDS011;38569;52.722;6.440;2024-02-14T00:46:04;14.70;;;10.80;;
52674;SDS011;38569;52.722;6.440;2024-02-14T00:48:31;12.38;;;10.07;;
52674;SDS011;38569;52.722;6.440;2024-02-14T00:50:57;12.88;;;10.02;;
52674;SDS011;38569;52.722;6.440;2024-02-14T00:53:24;17.63;;;9.40;;
52674;SDS011;38569;52.722;6.440;2024-02-14T00:55:50;12.25;;;10.15;;
52674;SDS011;38569;52.722;6.440;2024-02-14T00:58:16;12.50;;;9.57;;
52674;SDS011;38569;52.722;6.440;2024-02-14T01:00:42;11.05;;;9.95;;
52674;SDS011;38569;52.722;6.440;2024-02-14T01:03:08;13.00;;;9.82;;
52674;SDS011;38569;52.722;6.440;2024-02-14T01:05:37;12.48;;;8.60;;
52674;SDS011;38569;52.722;6.440;2024-02-14T01:08:04;10.50;;;9.27;;
52674;SDS011;38569;52.722;6.440;2024-02-14T01:10:30;11.05;;;8.70;;
52674;SDS011;38569;52.722;6.440;2024-02-14T01:12:55;15.93;;;9.85;;
52674;SDS011;38569;52.722;6.440;2024-02-14T01:15:22;10.50;;;8.43;;
52674;SDS011;38569;52.722;6.440;2024-02-14T01:17:47;11.10;;;9.10;;
52674;SDS011;38569;52.722;6.440;2024-02-14T01:20:13;9.65;;;8.60;;
52674;SDS011;38569;52.722;6.440;2024-02-14T01:22:39;12.75;;;8.88;;
52674;SDS011;38569;52.722;6.440;2024-02-14T01:25:05;10.73;;;8.77;;
52674;SDS011;38569;52.722;6.440;2024-02-14T01:27:31;11.35;;;7.90;;
52674;SDS011;38569;52.722;6.440;2024-02-14T01:29:57;15.25;;;9.63;;
52674;SDS011;38569;52.722;6.440;2024-02-14T01:32:23;9.60;;;8.20;;
52674;SDS011;38569;52.722;6.440;2024-02-14T01:34:49;10.32;;;7.55;;
52674;SDS011;38569;52.722;6.440;2024-02-14T01:37:14;9.55;;;7.40;;
52674;SDS011;38569;52.722;6.440;2024-02-14T01:39:40;9.60;;;7.78;;
52674;SDS011;38569;52.722;6.440;2024-02-14T01:42:06;10.75;;;7.55;;
52674;SDS011;38569;52.722;6.440;2024-02-14T01:44:33;10.50;;;7.95;;
52674;SDS011;38569;52.722;6.440;2024-02-14T01:47:02;7.50;;;6.70;;
52674;SDS011;38569;52.722;6.440;2024-02-14T01:49:28;10.25;;;7.85;;
52674;SDS011;38569;52.722;6.440;2024-02-14T01:51:58;7.70;;;6.90;;
52674;SDS011;38569;52.722;6.440;2024-02-14T01:54:28;7.60;;;6.32;;
52674;SDS011;38569;52.722;6.440;2024-02-14T01:56:55;8.63;;;6.82;;
52674;SDS011;38569;52.722;6.440;2024-02-14T01:59:22;9.43;;;7.28;;
52674;SDS011;38569;52.722;6.440;2024-02-14T02:01:49;8.45;;;7.30;;
52674;SDS011;38569;52.722;6.440;2024-02-14T02:04:17;6.63;;;5.85;;
52674;SDS011;38569;52.722;6.440;2024-02-14T02:06:43;7.35;;;6.65;;
52674;SDS011;38569;52.722;6.440;2024-02-14T02:09:09;8.93;;;7.38;;
52674;SDS011;38569;52.722;6.440;2024-02-14T02:11:45;7.65;;;6.53;;
52674;SDS011;38569;52.722;6.440;2024-02-14T02:14:15;10.65;;;7.50;;
52674;SDS011;38569;52.722;6.440;2024-02-14T02:16:44;7.75;;;6.78;;
52674;SDS011;38569;52.722;6.440;2024-02-14T02:19:11;8.02;;;7.22;;
52674;SDS011;38569;52.722;6.440;2024-02-14T02:21:37;6.82;;;6.18;;
52674;SDS011;38569;52.722;6.440;2024-02-14T02:24:03;12.30;;;6.93;;
52674;SDS011;38569;52.722;6.440;2024-02-14T02:26:30;7.00;;;6.30;;
52674;SDS011;38569;52.722;6.440;2024-02-14T02:28:55;7.97;;;6.55;;
52674;SDS011;38569;52.722;6.440;2024-02-14T02:31:21;7.18;;;6.15;;
52674;SDS011;38569;52.722;6.440;2024-02-14T02:33:48;8.45;;;7.13;;
52674;SDS011;38569;52.722;6.440;2024-02-14T02:36:14;9.23;;;6.90;;
52674;SDS011;38569;52.722;6.440;2024-02-14T02:38:41;8.77;;;7.50;;
52674;SDS011;38569;52.722;6.440;2024-02-14T02:41:07;8.88;;;7.45;;
52674;SDS011;38569;52.722;6.440;2024-02-14T02:43:33;8.73;;;7.70;;
52674;SDS011;38569;52.722;6.440;2024-02-14T02:45:59;10.02;;;8.48;;
52674;SDS011;38569;52.722;6.440;2024-02-14T02:48:25;8.38;;;7.32;;
52674;SDS011;38569;52.722;6.440;2024-02-14T02:50:51;8.63;;;7.72;;
52674;SDS011;38569;52.722;6.440;2024-02-14T02:53:18;12.15;;;8.75;;
52674;SDS011;38569;52.722;6.440;2024-02-14T02:55:44;9.38;;;8.02;;
52674;SDS011;38569;52.722;6.440;2024-02-14T02:58:10;10.18;;;8.82;;
52674;SDS011;38569;52.722;6.440;2024-02-14T03:00:36;9.00;;;8.07;;
52674;SDS011;38569;52.722;6.440;2024-02-14T03:03:01;10.48;;;8.32;;
52674;SDS011;38569;52.722;6.440;2024-02-14T03:05:29;10.52;;;8.90;;
52674;SDS011;38569;52.722;6.440;2024-02-14T03:07:58;9.57;;;8.57;;
52674;SDS011;38569;52.722;6.440;2024-02-14T03:10:24;9.57;;;8.57;;
52674;SDS011;38569;52.722;6.440;2024-02-14T03:12:51;10.15;;;9.13;;
52674;SDS011;38569;52.722;6.440;2024-02-14T03:15:17;10.63;;;9.52;;
52674;SDS011;38569;52.722;6.440;2024-02-14T03:17:43;14.68;;;9.43;;
52674;SDS011;38569;52.722;6.440;2024-02-14T03:20:10;11.60;;;9.40;;
52674;SDS011;38569;52.722;6.440;2024-02-14T03:22:39;11.10;;;9.90;;
52674;SDS011;38569;52.722;6.440;2024-02-14T03:25:18;11.85;;;10.23;;
52674;SDS011;38569;52.722;6.440;2024-02-14T03:27:45;10.70;;;9.43;;
52674;SDS011;38569;52.722;6.440;2024-02-14T03:30:14;11.93;;;10.07;;
52674;SDS011;38569;52.722;6.440;2024-02-14T03:32:42;9.90;;;8.77;;
52674;SDS011;38569;52.722;6.440;2024-02-14T03:35:08;15.45;;;10.70;;
52674;SDS011;38569;52.722;6.440;2024-02-14T03:37:37;13.57;;;12.10;;
52674;SDS011;38569;52.722;6.440;2024-02-14T03:40:04;15.27;;;11.13;;
52674;SDS011;38569;52.722;6.440;2024-02-14T03:42:32;16.50;;;10.95;;
52674;SDS011;38569;52.722;6.440;2024-02-14T03:44:59;11.88;;;10.45;;
52674;SDS011;38569;52.722;6.440;2024-02-14T03:47:34;15.68;;;11.02;;
52674;SDS011;38569;52.722;6.440;2024-02-14T03:50:00;12.43;;;10.60;;
52674;SDS011;38569;52.722;6.440;2024-02-14T03:52:27;15.43;;;10.75;;
52674;SDS011;38569;52.722;6.440;2024-02-14T03:54:53;13.07;;;11.10;;
52674;SDS011;38569;52.722;6.440;2024-02-14T03:57:18;14.07;;;11.45;;
52674;SDS011;38569;52.722;6.440;2024-02-14T03:59:44;15.30;;;11.25;;
52674;SDS011;38569;52.722;6.440;2024-02-14T04:02:11;12.07;;;10.43;;
52674;SDS011;38569;52.722;6.440;2024-02-14T04:04:38;12.73;;;11.13;;
52674;SDS011;38569;52.722;6.440;2024-02-14T04:07:07;14.55;;;10.38;;
52674;SDS011;38569;52.722;6.440;2024-02-14T04:09:36;16.52;;;11.77;;
52674;SDS011;38569;52.722;6.440;2024-02-14T04:12:02;12.52;;;10.98;;
52674;SDS011;38569;52.722;6.440;2024-02-14T04:14:28;13.65;;;11.15;;
52674;SDS011;38569;52.722;6.440;2024-02-14T04:16:54;13.43;;;10.80;;
52674;SDS011;38569;52.722;6.440;2024-02-14T04:19:20;12.77;;;10.68;;
52674;SDS011;38569;52.722;6.440;2024-02-14T04:21:45;12.68;;;10.07;;
52674;SDS011;38569;52.722;6.440;2024-02-14T04:24:11;13.45;;;11.45;;
52674;SDS011;38569;52.722;6.440;2024-02-14T04:26:37;12.90;;;11.48;;
52674;SDS011;38569;52.722;6.440;2024-02-14T04:29:03;13.98;;;11.65;;
52674;SDS011;38569;52.722;6.440;2024-02-14T04:31:29;15.40;;;11.43;;
52674;SDS011;38569;52.722;6.440;2024-02-14T04:33:56;13.95;;;10.65;;
52674;SDS011;38569;52.722;6.440;2024-02-14T04:36:22;14.90;;;11.02;;
52674;SDS011;38569;52.722;6.440;2024-02-14T04:38:48;13.43;;;10.88;;
52674;SDS011;38569;52.722;6.440;2024-02-14T04:41:15;13.88;;;11.43;;
52674;SDS011;38569;52.722;6.440;2024-02-14T04:43:41;14.00;;;10.85;;
52674;SDS011;38569;52.722;6.440;2024-02-14T04:46:07;11.30;;;10.10;;
52674;SDS011;38569;52.722;6.440;2024-02-14T04:48:37;13.00;;;11.27;;
52674;SDS011;38569;52.722;6.440;2024-02-14T04:51:03;12.27;;;10.43;;
52674;SDS011;38569;52.722;6.440;2024-02-14T04:53:32;11.68;;;10.00;;
52674;SDS011;38569;52.722;6.440;2024-02-14T04:55:57;14.00;;;11.25;;
52674;SDS011;38569;52.722;6.440;2024-02-14T04:58:23;13.18;;;11.13;;
52674;SDS011;38569;52.722;6.440;2024-02-14T05:00:49;13.15;;;10.90;;
52674;SDS011;38569;52.722;6.440;2024-02-14T05:03:15;14.60;;;12.50;;
52674;SDS011;38569;52.722;6.440;2024-02-14T05:05:41;14.05;;;11.80;;
52674;SDS011;38569;52.722;6.440;2024-02-14T05:08:07;13.07;;;11.43;;
52674;SDS011;38569;52.722;6.440;2024-02-14T05:10:32;14.35;;;11.55;;
52674;SDS011;38569;52.722;6.440;2024-02-14T05:12:58;13.48;;;10.70;;
52674;SDS011;38569;52.722;6.440;2024-02-14T05:15:24;14.02;;;11.18;;
52674;SDS011;38569;52.722;6.440;2024-02-14T05:17:50;15.70;;;12.77;;
52674;SDS011;38569;52.722;6.440;2024-02-14T05:20:16;13.85;;;11.55;;
52674;SDS011;38569;52.722;6.440;2024-02-14T05:22:41;14.70;;;11.75;;
52674;SDS011;38569;52.722;6.440;2024-02-14T05:25:07;12.98;;;11.68;;
52674;SDS011;38569;52.722;6.440;2024-02-14T05:27:37;14.32;;;11.80;;
52674;SDS011;38569;52.722;6.440;2024-02-14T05:30:03;14.90;;;12.20;;
52674;SDS011;38569;52.722;6.440;2024-02-14T05:32:30;17.98;;;14.35;;
52674;SDS011;38569;52.722;6.440;2024-02-14T05:34:59;14.43;;;12.65;;
52674;SDS011;38569;52.722;6.440;2024-02-14T05:37:25;14.90;;;12.98;;
52674;SDS011;38569;52.722;6.440;2024-02-14T05:39:52;17.70;;;13.63;;
52674;SDS011;38569;52.722;6.440;2024-02-14T05:42:21;17.23;;;14.40;;
52674;SDS011;38569;52.722;6.440;2024-02-14T05:44:47;18.25;;;15.10;;
52674;SDS011;38569;52.722;6.440;2024-02-14T05:47:13;18.33;;;14.77;;
52674;SDS011;38569;52.722;6.440;2024-02-14T05:49:39;23.73;;;16.33;;
52674;SDS011;38569;52.722;6.440;2024-02-14T05:52:06;22.45;;;14.93;;
52674;SDS011;38569;52.722;6.440;2024-02-14T05:54:32;21.23;;;16.02;;
52674;SDS011;38569;52.722;6.440;2024-02-14T05:56:58;20.10;;;15.35;;
52674;SDS011;38569;52.722;6.440;2024-02-14T05:59:24;20.85;;;16.13;;
52674;SDS011;38569;52.722;6.440;2024-02-14T06:01:50;21.25;;;14.77;;
52674;SDS011;38569;52.722;6.440;2024-02-14T06:04:16;23.20;;;17.38;;
52674;SDS011;38569;52.722;6.440;2024-02-14T06:06:41;22.45;;;16.92;;
52674;SDS011;38569;52.722;6.440;2024-02-14T06:09:07;23.73;;;17.23;;
52674;SDS011;38569;52.722;6.440;2024-02-14T06:11:36;20.48;;;16.67;;
52674;SDS011;38569;52.722;6.440;2024-02-14T06:14:06;32.05;;;19.15;;
52674;SDS011;38569;52.722;6.440;2024-02-14T06:16:32;26.75;;;18.00;;
52674;SDS011;38569;52.722;6.440;2024-02-14T06:18:58;30.60;;;18.23;;
52674;SDS011;38569;52.722;6.440;2024-02-14T06:21:24;25.08;;;18.77;;
52674;SDS011;38569;52.722;6.440;2024-02-14T06:23:50;26.63;;;20.38;;
52674;SDS011;38569;52.722;6.440;2024-02-14T06:26:16;31.13;;;21.08;;
52674;SDS011;38569;52.722;6.440;2024-02-14T06:28:43;32.05;;;20.65;;
52674;SDS011;38569;52.722;6.440;2024-02-14T06:31:09;37.28;;;22.95;;
52674;SDS011;38569;52.722;6.440;2024-02-14T06:33:35;27.17;;;20.42;;
52674;SDS011;38569;52.722;6.440;2024-02-14T06:36:01;29.15;;;20.40;;
52674;SDS011;38569;52.722;6.440;2024-02-14T06:38:27;36.83;;;22.75;;
52674;SDS011;38569;52.722;6.440;2024-02-14T06:40:52;42.90;;;25.88;;
52674;SDS011;38569;52.722;6.440;2024-02-14T06:43:18;37.22;;;24.73;;
52674;SDS011;38569;52.722;6.440;2024-02-14T06:45:45;39.13;;;24.73;;
52674;SDS011;38569;52.722;6.440;2024-02-14T06:48:11;40.35;;;24.60;;
52674;SDS011;38569;52.722;6.440;2024-02-14T06:50:36;41.95;;;27.42;;
52674;SDS011;38569;52.722;6.440;2024-02-14T06:53:02;51.45;;;25.13;;
52674;SDS011;38569;52.722;6.440;2024-02-14T06:55:29;40.33;;;25.20;;
52674;SDS011;38569;52.722;6.440;2024-02-14T06:57:57;35.80;;;24.50;;
52674;SDS011;38569;52.722;6.440;2024-02-14T07:00:26;43.35;;;25.35;;
52674;SDS011;38569;52.722;6.440;2024-02-14T07:02:53;45.05;;;26.10;;
52674;SDS011;38569;52.722;6.440;2024-02-14T07:05:19;40.83;;;26.38;;
52674;SDS011;38569;52.722;6.440;2024-02-14T07:07:44;38.75;;;24.92;;
52674;SDS011;38569;52.722;6.440;2024-02-14T07:10:10;36.80;;;24.50;;
52674;SDS011;38569;52.722;6.440;2024-02-14T07:12:36;33.53;;;23.30;;
52674;SDS011;38569;52.722;6.440;2024-02-14T07:15:03;36.25;;;23.15;;
52674;SDS011;38569;52.722;6.440;2024-02-14T07:17:29;35.70;;;23.55;;
52674;SDS011;38569;52.722;6.440;2024-02-14T07:19:55;43.83;;;26.50;;
52674;SDS011;38569;52.722;6.440;2024-02-14T07:22:21;43.15;;;25.83;;
52674;SDS011;38569;52.722;6.440;2024-02-14T07:24:46;43.63;;;24.70;;
52674;SDS011;38569;52.722;6.440;2024-02-14T07:27:13;47.55;;;27.77;;
52674;SDS011;38569;52.722;6.440;2024-02-14T07:29:40;42.30;;;25.27;;
52674;SDS011;38569;52.722;6.440;2024-02-14T07:32:06;48.60;;;26.75;;
52674;SDS011;38569;52.722;6.440;2024-02-14T07:34:32;48.97;;;27.52;;
52674;SDS011;38569;52.722;6.440;2024-02-14T07:36:57;38.92;;;27.20;;
52674;SDS011;38569;52.722;6.440;2024-02-14T07:39:23;46.20;;;28.25;;
52674;SDS011;38569;52.722;6.440;2024-02-14T07:41:50;44.50;;;27.10;;
52674;SDS011;38569;52.722;6.440;2024-02-14T07:44:15;53.88;;;30.05;;
52674;SDS011;38569;52.722;6.440;2024-02-14T07:46:41;57.15;;;30.80;;
52674;SDS011;38569;52.722;6.440;2024-02-14T07:49:07;61.65;;;32.22;;
52674;SDS011;38569;52.722;6.440;2024-02-14T07:51:34;54.55;;;30.33;;
52674;SDS011;38569;52.722;6.440;2024-02-14T07:54:02;57.15;;;32.55;;
52674;SDS011;38569;52.722;6.440;2024-02-14T07:56:29;52.03;;;31.50;;
52674;SDS011;38569;52.722;6.440;2024-02-14T07:58:55;55.70;;;31.45;;
52674;SDS011;38569;52.722;6.440;2024-02-14T08:01:20;56.65;;;31.05;;
52674;SDS011;38569;52.722;6.440;2024-02-14T08:03:46;50.50;;;30.70;;
52674;SDS011;38569;52.722;6.440;2024-02-14T08:06:12;51.72;;;30.13;;
52674;SDS011;38569;52.722;6.440;2024-02-14T08:08:38;46.58;;;29.33;;
52674;SDS011;38569;52.722;6.440;2024-02-14T08:11:04;50.78;;;30.20;;
52674;SDS011;38569;52.722;6.440;2024-02-14T08:13:31;46.65;;;29.15;;
52674;SDS011;38569;52.722;6.440;2024-02-14T08:15:57;59.42;;;29.83;;
